sensor_id;sensor_type;location;lat;lon;timestamp;P1;durP1;ratioP1;P2;durP2;ratioP2
70414;SDS011;57837;52.064;113.478;2022-09-02T19:30:28;25.83;;;12.25;;
70414;SDS011;57837;52.064;113.478;2022-09-02T19:33:41;20.10;;;11.82;;
70414;SDS011;57837;52.064;113.478;2022-09-02T19:36:46;23.90;;;12.27;;
70414;SDS011;57837;52.064;113.478;2022-09-02T19:39:52;31.02;;;15.30;;
70414;SDS011;57837;52.064;113.478;2022-09-02T19:42:55;26.17;;;14.40;;
70414;SDS011;57837;52.064;113.478;2022-09-02T19:45:59;26.20;;;13.40;;
70414;SDS011;57837;52.064;113.478;2022-09-02T19:49:03;25.35;;;13.15;;
70414;SDS011;57837;52.064;113.478;2022-09-02T19:52:08;24.57;;;13.37;;
70414;SDS011;57837;52.064;113.478;2022-09-02T19:55:13;24.80;;;12.48;;
70414;SDS011;57837;52.064;113.478;2022-09-02T19:58:18;21.67;;;12.38;;
70414;SDS011;57837;52.064;113.478;2022-09-02T20:01:22;25.40;;;12.18;;
70414;SDS011;57837;52.064;113.478;2022-09-02T20:04:25;23.00;;;11.88;;
70414;SDS011;57837;52.064;113.478;2022-09-02T20:07:31;20.37;;;11.77;;
70414;SDS011;57837;52.064;113.478;2022-09-02T20:10:35;21.17;;;11.50;;
70414;SDS011;57837;52.064;113.478;2022-09-02T20:13:40;18.20;;;11.02;;
70414;SDS011;57837;52.064;113.478;2022-09-02T20:16:43;21.80;;;10.95;;
70414;SDS011;57837;52.064;113.478;2022-09-02T20:19:47;20.27;;;10.85;;
70414;SDS011;57837;52.064;113.478;2022-09-02T20:22:53;22.53;;;11.30;;
70414;SDS011;57837;52.064;113.478;2022-09-02T20:26:17;20.05;;;11.82;;
70414;SDS011;57837;52.064;113.478;2022-09-02T20:32:56;15.80;;;10.15;;
70414;SDS011;57837;52.064;113.478;2022-09-02T20:42:58;19.92;;;9.75;;
70414;SDS011;57837;52.064;113.478;2022-09-02T20:46:28;23.52;;;9.23;;
70414;SDS011;57837;52.064;113.478;2022-09-02T20:49:55;18.27;;;8.80;;
70414;SDS011;57837;52.064;113.478;2022-09-02T21:03:03;25.85;;;12.70;;
70414;SDS011;57837;52.064;113.478;2022-09-02T21:06:12;25.50;;;11.77;;
70414;SDS011;57837;52.064;113.478;2022-09-02T21:09:24;24.58;;;10.52;;
70414;SDS011;57837;52.064;113.478;2022-09-02T21:12:55;24.63;;;11.33;;
70414;SDS011;57837;52.064;113.478;2022-09-02T21:16:13;20.08;;;10.20;;
70414;SDS011;57837;52.064;113.478;2022-09-02T21:19:32;18.92;;;9.75;;
70414;SDS011;57837;52.064;113.478;2022-09-02T21:22:42;20.15;;;10.52;;
70414;SDS011;57837;52.064;113.478;2022-09-02T21:25:56;18.95;;;10.68;;
70414;SDS011;57837;52.064;113.478;2022-09-02T21:29:05;20.00;;;10.37;;
70414;SDS011;57837;52.064;113.478;2022-09-02T21:35:43;20.65;;;10.23;;
70414;SDS011;57837;52.064;113.478;2022-09-02T21:38:50;17.67;;;10.48;;
70414;SDS011;57837;52.064;113.478;2022-09-02T21:45:23;15.10;;;9.43;;
70414;SDS011;57837;52.064;113.478;2022-09-02T21:49:02;19.02;;;9.00;;
70414;SDS011;57837;52.064;113.478;2022-09-02T21:56:09;16.45;;;8.50;;
70414;SDS011;57837;52.064;113.478;2022-09-02T22:02:48;17.83;;;8.50;;
70414;SDS011;57837;52.064;113.478;2022-09-02T22:09:32;18.20;;;9.48;;
70414;SDS011;57837;52.064;113.478;2022-09-02T22:12:36;17.00;;;10.02;;
70414;SDS011;57837;52.064;113.478;2022-09-02T22:15:52;23.58;;;9.70;;
70414;SDS011;57837;52.064;113.478;2022-09-02T22:19:01;17.63;;;10.10;;
70414;SDS011;57837;52.064;113.478;2022-09-02T22:22:13;23.17;;;9.18;;
70414;SDS011;57837;52.064;113.478;2022-09-02T22:25:19;20.08;;;9.73;;
70414;SDS011;57837;52.064;113.478;2022-09-02T22:28:35;16.98;;;9.68;;
70414;SDS011;57837;52.064;113.478;2022-09-02T22:31:42;14.77;;;9.30;;
70414;SDS011;57837;52.064;113.478;2022-09-02T22:34:55;20.37;;;10.43;;
70414;SDS011;57837;52.064;113.478;2022-09-02T22:38:34;24.42;;;10.48;;
70414;SDS011;57837;52.064;113.478;2022-09-02T22:42:00;20.05;;;10.18;;
70414;SDS011;57837;52.064;113.478;2022-09-02T22:45:10;20.35;;;10.70;;
70414;SDS011;57837;52.064;113.478;2022-09-02T22:48:41;21.75;;;10.02;;
70414;SDS011;57837;52.064;113.478;2022-09-02T22:52:19;18.23;;;9.93;;
70414;SDS011;57837;52.064;113.478;2022-09-02T22:59:10;16.05;;;10.02;;
70414;SDS011;57837;52.064;113.478;2022-09-02T23:05:42;19.55;;;10.57;;
70414;SDS011;57837;52.064;113.478;2022-09-02T23:09:09;21.63;;;11.00;;
70414;SDS011;57837;52.064;113.478;2022-09-02T23:12:33;21.88;;;11.40;;
70414;SDS011;57837;52.064;113.478;2022-09-02T23:29:46;21.92;;;9.10;;
70414;SDS011;57837;52.064;113.478;2022-09-02T23:36:39;26.77;;;9.85;;
70414;SDS011;57837;52.064;113.478;2022-09-02T23:43:33;17.67;;;8.50;;
70414;SDS011;57837;52.064;113.478;2022-09-02T23:50:07;16.27;;;9.13;;
70414;SDS011;57837;52.064;113.478;2022-09-02T23:53:20;16.02;;;9.13;;
70414;SDS011;57837;52.064;113.478;2022-09-02T23:56:39;12.35;;;9.18;;
